createdAt,value
2022-09-10T00:02:00.059Z,98595.06
2022-09-10T00:05:18.903Z,98593.66
2022-09-10T00:08:35.211Z,98586.09
2022-09-10T00:11:52.537Z,98589.70
2022-09-10T00:15:09.424Z,98583.63
2022-09-10T00:18:28.049Z,98587.82
2022-09-10T00:21:45.013Z,98578.02
2022-09-10T00:25:08.106Z,98586.73
2022-09-10T00:28:22.776Z,98580.56
2022-09-10T00:31:40.712Z,98584.52
2022-09-10T00:34:57.378Z,98579.01
2022-09-10T00:38:15.259Z,98576.41
2022-09-10T00:41:34.259Z,98571.52
2022-09-10T00:45:06.344Z,98576.27
2022-09-10T00:48:27.592Z,98579.19
2022-09-10T00:51:45.338Z,98589.66
2022-09-10T00:55:01.545Z,98573.96
2022-09-10T00:58:21.004Z,98568.97
2022-09-10T01:01:37.771Z,98570.84
2022-09-10T01:04:55.597Z,98578.38
2022-09-10T01:08:12.816Z,98578.59
2022-09-10T01:11:51.587Z,98579.05
2022-09-10T01:15:21.808Z,98588.13
2022-09-10T01:18:45.867Z,98587.16
2022-09-10T01:22:08.779Z,98580.02
2022-09-10T01:25:31.205Z,98584.58
2022-09-10T01:28:52.035Z,98581.66
2022-09-10T01:32:15.519Z,98574.84
2022-09-10T01:35:41.826Z,98572.59
2022-09-10T01:38:59.879Z,98571.05
2022-09-10T01:42:16.917Z,98581.86
2022-09-10T01:45:34.299Z,98572.39
2022-09-10T01:49:16.633Z,98570.61
2022-09-10T01:52:39.201Z,98566.33
2022-09-10T01:56:04.527Z,98567.73
2022-09-10T01:59:29.892Z,98574.49
2022-09-10T02:02:52.041Z,98577.40
2022-09-10T02:06:11.482Z,98572.48
2022-09-10T02:09:28.603Z,98576.05
2022-09-10T02:12:46.187Z,98562.30
2022-09-10T02:16:27.102Z,98555.68
2022-09-10T02:19:43.473Z,98560.46
2022-09-10T02:23:04.319Z,98549.06
2022-09-10T02:26:21.593Z,98543.52
2022-09-10T02:29:39.360Z,98534.88
2022-09-10T02:32:55.802Z,98530.13
2022-09-10T02:36:15.522Z,98523.52
2022-09-10T02:39:32.312Z,98530.70
2022-09-10T02:42:49.165Z,98525.34
2022-09-10T02:46:08.086Z,98513.24
2022-09-10T02:49:25.518Z,98518.83
2022-09-10T02:52:41.869Z,98517.86
2022-09-10T02:55:59.801Z,98522.63
2022-09-10T02:59:16.400Z,98510.95
2022-09-10T03:02:33.490Z,98516.91
2022-09-10T03:05:50.670Z,98521.22
2022-09-10T03:09:07.616Z,98519.22
2022-09-10T03:12:24.568Z,98519.31
2022-09-10T03:15:41.115Z,98527.91
2022-09-10T03:18:57.555Z,98527.91
2022-09-10T03:22:14.227Z,98519.31
2022-09-10T03:25:31.143Z,98528.80
2022-09-10T03:28:49.336Z,98527.47
2022-09-10T03:32:07.840Z,98531.78
2022-09-10T03:35:24.430Z,98529.77
2022-09-10T03:38:41.329Z,98530.81
2022-09-10T03:41:57.699Z,98520.85
2022-09-10T03:45:18.195Z,98524.04
2022-09-10T03:48:35.417Z,98523.58
2022-09-10T03:51:52.287Z,98521.94
2022-09-10T03:55:09.698Z,98523.95
2022-09-10T03:58:29.365Z,98513.01
2022-09-10T04:01:46.616Z,98514.88
2022-09-10T04:05:03.328Z,98517.86
2022-09-10T04:08:21.275Z,98505.31
2022-09-10T04:11:40.811Z,98507.98
2022-09-10T04:14:57.807Z,98509.63
2022-09-10T04:18:17.095Z,98506.95
2022-09-10T04:21:35.144Z,98511.09
2022-09-10T04:24:52.199Z,98514.09
2022-09-10T04:28:10.230Z,98520.11
2022-09-10T04:31:27.124Z,98512.46
2022-09-10T04:34:45.473Z,98509.41
2022-09-10T04:38:02.920Z,98510.59
2022-09-10T04:41:20.300Z,98505.23
2022-09-10T04:44:37.596Z,98502.50
2022-09-10T04:47:54.959Z,98503.30
2022-09-10T04:51:17.547Z,98502.56
2022-09-10T04:54:34.442Z,98495.00
2022-09-10T04:57:50.876Z,98500.58
2022-09-10T05:01:08.288Z,98488.45
2022-09-10T05:04:24.726Z,98492.76
2022-09-10T05:07:41.556Z,98487.64
2022-09-10T05:10:58.019Z,98489.28
2022-09-10T05:14:14.905Z,98492.70
2022-09-10T05:17:31.869Z,98496.68
2022-09-10T05:20:51.236Z,98479.72
2022-09-10T05:24:08.727Z,98481.50
2022-09-10T05:27:25.020Z,98482.67
2022-09-10T05:30:41.679Z,98479.79
2022-09-10T05:34:01.890Z,98480.36
2022-09-10T05:37:19.483Z,98474.33
2022-09-10T05:40:35.634Z,98481.32
2022-09-10T05:43:52.406Z,98475.05
2022-09-10T05:47:09.699Z,98481.92
2022-09-10T05:50:27.599Z,98478.17
2022-09-10T05:53:44.919Z,98489.24
2022-09-10T05:57:02.297Z,98485.53
2022-09-10T06:00:21.312Z,98481.32
2022-09-10T06:03:44.037Z,98476.56
2022-09-10T06:07:01.202Z,98477.47
2022-09-10T06:10:18.955Z,98473.53
2022-09-10T06:13:36.611Z,98477.14
2022-09-10T06:16:55.395Z,98468.66
2022-09-10T06:20:16.459Z,98473.11
2022-09-10T06:23:34.815Z,98473.11
2022-09-10T06:26:51.181Z,98479.27
2022-09-10T06:30:07.629Z,98482.05
2022-09-10T06:33:28.144Z,98481.69
2022-09-10T06:36:44.535Z,98484.80
2022-09-10T06:40:00.556Z,98489.95
2022-09-10T06:43:18.303Z,98488.08
2022-09-10T06:47:16.067Z,98482.59
2022-09-10T06:50:00.920Z,98484.07
2022-09-10T06:53:18.936Z,98482.83
2022-09-10T06:56:42.370Z,98494.44
2022-09-10T07:00:02.180Z,98487.89
2022-09-10T07:03:20.057Z,98495.68
2022-09-10T07:06:40.051Z,98495.48
2022-09-10T07:10:04.734Z,98493.00
2022-09-10T07:13:21.765Z,98488.02
2022-09-10T07:16:40.892Z,98487.11
2022-09-10T07:19:57.963Z,98485.50
2022-09-10T07:23:16.182Z,98488.52
2022-09-10T07:26:32.987Z,98485.03
2022-09-10T07:29:52.797Z,98487.84
2022-09-10T07:33:11.874Z,98496.70
2022-09-10T07:36:35.342Z,98494.47
2022-09-10T07:40:12.651Z,98496.91
2022-09-10T07:46:57.297Z,98493.43
2022-09-10T07:50:17.050Z,98500.86
2022-09-10T07:53:31.261Z,98507.62
2022-09-10T07:56:49.235Z,98496.34
2022-09-10T08:00:06.136Z,98497.62
2022-09-10T08:03:24.586Z,98490.02
2022-09-10T08:06:41.222Z,98501.56
2022-09-10T08:09:58.295Z,98508.52
2022-09-10T08:13:15.643Z,98502.97
2022-09-10T08:16:33.917Z,98500.66
2022-09-10T08:19:52.020Z,98507.98
2022-09-10T08:23:08.934Z,98509.63
2022-09-10T08:26:26.948Z,98504.94
2022-09-10T08:29:45.142Z,98507.85
2022-09-10T08:33:02.860Z,98505.17
2022-09-10T08:36:22.578Z,98508.32
2022-09-10T08:39:39.214Z,98501.20
2022-09-10T08:42:59.195Z,98502.47
2022-09-10T08:46:24.253Z,98504.31
2022-09-10T08:49:48.125Z,98499.19
2022-09-10T08:53:12.682Z,98495.91
2022-09-10T08:56:34.228Z,98499.19
2022-09-10T08:59:54.075Z,98494.88
2022-09-10T09:03:16.884Z,98500.73
2022-09-10T09:06:40.383Z,98499.59
2022-09-10T09:10:00.209Z,98494.59
2022-09-10T09:13:35.933Z,98503.46
2022-09-10T09:17:29.979Z,98500.68
2022-09-10T09:20:54.548Z,98492.77
2022-09-10T09:24:17.354Z,98498.37
2022-09-10T09:27:40.132Z,98503.13
2022-09-10T09:31:00.038Z,98503.05
2022-09-10T09:34:23.988Z,98504.45
2022-09-10T09:37:56.079Z,98499.66
2022-09-10T09:41:27.249Z,98499.66
2022-09-10T09:44:56.892Z,98502.94
2022-09-10T09:48:12.740Z,98503.53
2022-09-10T09:51:31.460Z,98500.26
2022-09-10T09:58:43.530Z,98496.73
2022-09-10T10:02:04.788Z,98492.41
2022-09-10T10:05:28.857Z,98497.09
2022-09-10T10:08:48.999Z,98486.74
2022-09-10T10:12:08.064Z,98483.95
2022-09-10T10:15:42.674Z,98477.00
2022-09-10T10:18:59.633Z,98475.18
2022-09-10T10:22:36.385Z,98473.20
2022-09-10T10:26:06.901Z,98476.59
2022-09-10T10:29:29.693Z,98478.09
2022-09-10T10:32:58.442Z,98481.03
2022-09-10T10:36:24.502Z,98474.59
2022-09-10T10:39:56.136Z,98473.31
2022-09-10T10:43:21.509Z,98482.30
2022-09-10T10:46:43.707Z,98483.45
2022-09-10T10:50:07.542Z,98477.52
2022-09-10T10:53:49.392Z,98482.27
2022-09-10T10:57:31.692Z,98482.95
2022-09-10T11:00:52.190Z,98481.31
2022-09-10T11:04:17.247Z,98492.39
2022-09-10T11:07:40.939Z,98486.44
2022-09-10T11:11:01.552Z,98492.63
2022-09-10T11:14:27.025Z,98489.46
2022-09-10T11:17:48.004Z,98476.77
2022-09-10T11:21:13.749Z,98492.52
2022-09-10T11:24:34.801Z,98486.78
2022-09-10T11:27:55.676Z,98476.53
2022-09-10T11:31:18.370Z,98479.67
2022-09-10T11:35:12.125Z,98470.14
2022-09-10T11:38:36.814Z,98460.81
2022-09-10T11:42:09.699Z,98468.19
2022-09-10T11:45:39.544Z,98465.05
2022-09-10T11:49:04.379Z,98459.45
2022-09-10T11:52:26.923Z,98461.30
2022-09-10T11:56:02.179Z,98461.89
2022-09-10T11:59:31.857Z,98455.00
2022-09-10T12:03:41.559Z,98456.52
2022-09-10T12:07:11.299Z,98443.46
2022-09-10T12:10:36.377Z,98447.59
2022-09-10T12:13:56.239Z,98437.33
2022-09-10T12:17:18.286Z,98441.03
2022-09-10T12:20:45.547Z,98446.24
2022-09-10T12:24:02.970Z,98442.27
2022-09-10T12:27:28.090Z,98431.22
2022-09-10T12:31:10.739Z,98428.54
2022-09-10T12:34:29.647Z,98429.25
2022-09-10T12:37:54.775Z,98433.78
2022-09-10T12:41:15.587Z,98429.62
2022-09-10T12:45:02.240Z,98419.63
2022-09-10T12:48:27.080Z,98417.28
2022-09-10T12:51:52.264Z,98416.94
2022-09-10T12:55:13.343Z,98414.59
2022-09-10T12:58:38.641Z,98410.63
2022-09-10T13:02:01.425Z,98411.08
2022-09-10T13:05:35.598Z,98409.38
2022-09-10T13:08:57.613Z,98406.91
2022-09-10T13:12:23.907Z,98407.66
2022-09-10T13:15:44.159Z,98403.09
2022-09-10T13:19:14.259Z,98397.38
2022-09-10T13:23:07.170Z,98393.31
2022-09-10T13:26:57.966Z,98391.00
2022-09-10T13:30:26.781Z,98385.33
2022-09-10T13:33:50.013Z,98378.53
2022-09-10T13:37:42.120Z,98388.09
2022-09-10T13:41:17.379Z,98389.34
2022-09-10T13:44:46.171Z,98392.83
2022-09-10T13:48:09.585Z,98379.88
2022-09-10T13:51:34.146Z,98374.27
2022-09-10T13:54:57.317Z,98377.50
2022-09-10T13:58:20.872Z,98380.31
2022-09-10T14:02:01.502Z,98371.42
2022-09-10T14:05:45.155Z,98378.44
2022-09-10T14:09:10.932Z,98385.89
2022-09-10T14:12:33.992Z,98388.57
2022-09-10T14:15:51.801Z,98384.93
2022-09-10T14:19:11.919Z,98381.53
2022-09-10T14:22:31.895Z,98381.75
2022-09-10T14:25:51.046Z,98385.98
2022-09-10T14:29:25.286Z,98373.03
2022-09-10T14:32:47.822Z,98372.94
2022-09-10T14:36:22.642Z,98372.72
2022-09-10T14:39:40.156Z,98373.69
2022-09-10T14:43:20.712Z,98369.80
2022-09-10T14:47:06.813Z,98376.61
2022-09-10T14:50:43.330Z,98366.50
2022-09-10T14:54:03.681Z,98366.65
2022-09-10T14:57:24.184Z,98372.81
2022-09-10T15:00:48.838Z,98363.72
2022-09-10T15:04:05.218Z,98364.77
2022-09-10T15:07:21.531Z,98362.80
2022-09-10T15:10:41.214Z,98362.33
2022-09-10T15:14:02.113Z,98369.55
2022-09-10T15:17:25.666Z,98371.34
2022-09-10T15:20:44.133Z,98364.94
2022-09-10T15:24:05.322Z,98366.08
2022-09-10T15:27:31.602Z,98372.63
2022-09-10T15:30:49.385Z,98360.62
2022-09-10T15:34:05.508Z,98361.11
2022-09-10T15:37:25.117Z,98358.63
2022-09-10T15:40:41.322Z,98355.70
2022-09-10T15:44:10.325Z,98362.74
2022-09-10T15:47:28.697Z,98350.39
2022-09-10T15:50:52.639Z,98354.11
2022-09-10T15:54:12.357Z,98355.98
2022-09-10T15:57:29.233Z,98360.86
2022-09-10T16:00:48.974Z,98362.86
2022-09-10T16:04:11.313Z,98367.06
2022-09-10T16:07:28.781Z,98360.41
2022-09-10T16:10:49.110Z,98373.58
2022-09-10T16:14:07.844Z,98369.60
2022-09-10T16:17:24.332Z,98368.94
2022-09-10T16:20:41.189Z,98364.98
2022-09-10T16:24:01.692Z,98374.16
2022-09-10T16:27:18.194Z,98374.30
2022-09-10T16:30:35.384Z,98370.69
2022-09-10T16:34:04.377Z,98367.77
2022-09-10T16:37:20.628Z,98360.66
2022-09-10T16:40:37.195Z,98363.83
2022-09-10T16:43:53.612Z,98361.61
2022-09-10T16:47:19.920Z,98368.84
2022-09-10T16:50:36.349Z,98363.23
2022-09-10T16:53:56.735Z,98355.20
2022-09-10T16:57:20.522Z,98358.58
2022-09-10T17:00:43.853Z,98350.09
2022-09-10T17:04:13.725Z,98340.77
2022-09-10T17:07:31.746Z,98346.13
2022-09-10T17:10:51.084Z,98344.73
2022-09-10T17:14:09.043Z,98346.02
2022-09-10T17:17:30.445Z,98344.14
2022-09-10T17:20:49.084Z,98349.73
2022-09-10T17:24:07.856Z,98357.56
2022-09-10T17:27:25.865Z,98358.02
2022-09-10T17:30:48.062Z,98338.70
2022-09-10T17:34:04.600Z,98336.09
2022-09-10T17:37:24.346Z,98329.23
2022-09-10T17:40:40.598Z,98325.97
2022-09-10T17:43:58.022Z,98333.53
2022-09-10T17:47:19.421Z,98335.41
2022-09-10T17:50:38.762Z,98353.67
2022-09-10T17:54:01.624Z,98412.45
2022-09-10T17:57:18.762Z,98439.53
2022-09-10T18:00:35.519Z,98423.02
2022-09-10T18:03:51.959Z,98430.30
2022-09-10T18:07:08.071Z,98434.14
2022-09-10T18:10:24.793Z,98413.42
2022-09-10T18:13:42.172Z,98407.98
2022-09-10T18:17:02.137Z,98405.05
2022-09-10T18:20:23.565Z,98392.10
2022-09-10T18:23:44.131Z,98390.39
2022-09-10T18:27:05.453Z,98379.38
2022-09-10T18:30:22.845Z,98379.16
2022-09-10T18:33:46.551Z,98375.94
2022-09-10T18:37:05.929Z,98361.59
2022-09-10T18:40:26.027Z,98364.27
2022-09-10T18:43:53.976Z,98364.09
2022-09-10T18:47:34.310Z,98361.03
2022-09-10T18:50:34.829Z,98349.17
2022-09-10T18:53:57.219Z,98353.89
2022-09-10T18:57:14.085Z,98354.95
2022-09-10T19:04:20.969Z,98361.30
2022-09-10T19:07:41.754Z,98349.64
2022-09-10T19:11:09.748Z,98361.98
2022-09-10T19:14:31.737Z,98360.13
2022-09-10T19:17:56.297Z,98357.46
2022-09-10T19:21:14.315Z,98345.77
2022-09-10T19:24:56.532Z,98363.01
2022-09-10T19:27:49.654Z,98364.84
2022-09-10T19:31:18.803Z,98357.06
2022-09-10T19:34:36.471Z,98362.84
2022-09-10T19:37:53.012Z,98372.65
2022-09-10T19:41:21.660Z,98369.19
2022-09-10T19:44:39.503Z,98366.34
2022-09-10T19:47:56.698Z,98372.92
2022-09-10T19:51:16.742Z,98370.84
2022-09-10T19:54:33.857Z,98370.84
2022-09-10T19:57:50.141Z,98365.32
2022-09-10T20:01:06.534Z,98365.32
2022-09-10T20:04:26.357Z,98365.73
2022-09-10T20:07:42.794Z,98369.45
2022-09-10T20:11:03.131Z,98368.25
2022-09-10T20:14:21.869Z,98361.88
2022-09-10T20:17:39.140Z,98367.59
2022-09-10T20:20:55.913Z,98367.81
2022-09-10T20:24:13.977Z,98369.24
2022-09-10T20:27:30.415Z,98365.95
2022-09-10T20:30:50.199Z,98369.28
2022-09-10T20:34:09.415Z,98359.83
2022-09-10T20:37:25.806Z,98360.44
2022-09-10T20:40:43.181Z,98350.58
2022-09-10T20:44:02.482Z,98357.33
2022-09-10T20:47:19.238Z,98348.50
2022-09-10T20:50:35.654Z,98355.69
2022-09-10T20:53:53.000Z,98362.44
2022-09-10T20:57:09.764Z,98359.55
2022-09-10T21:00:27.402Z,98366.48
2022-09-10T21:03:46.224Z,98360.96
2022-09-10T21:07:02.640Z,98376.74
2022-09-10T21:10:19.844Z,98370.21
2022-09-10T21:13:36.986Z,98379.49
2022-09-10T21:16:53.903Z,98380.11
2022-09-10T21:20:13.349Z,98379.68
2022-09-10T21:23:29.881Z,98371.06
2022-09-10T21:26:48.825Z,98374.73
2022-09-10T21:30:05.058Z,98377.14
2022-09-10T21:33:21.379Z,98368.10
2022-09-10T21:36:39.210Z,98372.78
2022-09-10T21:39:55.585Z,98380.75
2022-09-10T21:43:11.714Z,98387.28
2022-09-10T21:46:28.347Z,98374.36
2022-09-10T21:49:45.715Z,98389.34
2022-09-10T21:53:02.336Z,98379.92
2022-09-10T21:56:22.630Z,98382.80
2022-09-10T21:59:38.855Z,98393.69
2022-09-10T22:02:55.567Z,98386.55
2022-09-10T22:06:19.226Z,98386.55
2022-09-10T22:09:35.285Z,98386.77
2022-09-10T22:12:51.868Z,98388.59
2022-09-10T22:16:09.219Z,98379.79
2022-09-10T22:19:28.259Z,98379.98
2022-09-10T22:22:45.560Z,98373.63
2022-09-10T22:26:04.959Z,98373.23
2022-09-10T22:29:23.535Z,98367.31
2022-09-10T22:32:41.136Z,98371.18
2022-09-10T22:35:57.800Z,98376.55
2022-09-10T22:39:17.506Z,98379.22
2022-09-10T22:42:33.558Z,98375.36
2022-09-10T22:45:50.510Z,98374.34
2022-09-10T22:49:07.995Z,98375.98
2022-09-10T22:52:25.196Z,98375.41
2022-09-10T22:55:42.914Z,98381.53
2022-09-10T22:59:00.667Z,98381.32
2022-09-10T23:02:16.936Z,98367.19
2022-09-10T23:05:33.043Z,98369.42
2022-09-10T23:08:51.650Z,98365.11
2022-09-10T23:12:08.994Z,98363.11
2022-09-10T23:15:25.297Z,98363.06
2022-09-10T23:18:41.596Z,98368.35
2022-09-10T23:22:00.606Z,98377.19
2022-09-10T23:25:20.793Z,98374.13
2022-09-10T23:28:37.689Z,98369.59
2022-09-10T23:31:55.793Z,98379.67
2022-09-10T23:35:13.480Z,98375.98
2022-09-10T23:38:31.749Z,98376.17
2022-09-10T23:41:46.667Z,98373.50
2022-09-10T23:45:02.671Z,98380.48
2022-09-10T23:48:19.129Z,98382.73
2022-09-10T23:51:36.337Z,98375.94
2022-09-10T23:54:52.434Z,98375.31
2022-09-10T23:58:08.496Z,98378.56
